Delta Virtual Airport Information Service

Ottawa Macdonald-Cartier International Airport

ICAO: CYOW Country: Canada
Latitude: 45.3225 Longitude: -75.6691
Latest Arrival : ACA452 (CYYZ-CYOW) Latest Departure : JZA478 (CYOW-CYUL)


WX CaptureLIVE
Data provided by noaa.gov | Fetched at 13:02:15

METAR : CYOW 281700Z 06008KT 15SM BKN023 08/03 A3004 RMK SC5 SLP177

TAF : CYOW 281738Z 2818/2918 06008KT P6SM FEW020 TEMPO 2818/2820 BKN020 BECMG 2913/2915 08010G20KT RMK NXT FCST BY 282100Z


Runway Data for CYOW
Data provided by openaviationdata.com

Runway ID Mag Var Hdg Length Elevation Surface ILS Freq ILS Id ILS Slope
4 -14 37° 3298 ft 374 ft Asphalt -- -- --
7 -14 70° 8099 ft 374 ft Asphalt 109.5 IOW 3
14 -14 139° 9991 ft 374 ft Asphalt -- -- --
22 -14 217° 3298 ft 374 ft Asphalt -- -- --
25 -14 250° 8099 ft 374 ft Asphalt -- -- --
32 -14 319° 9991 ft 374 ft Asphalt 110.3 IRP 3

Ottawa Macdonald-Cartier International Airport, Canada
Use only for reference purposes



Not for navigational purposes.